Daisy, MO

1:41 PM CST on January 26, 2015 (GMT -0600)
Sparta Community-Hunter | Change Station
CLOSE
Current Station
Airport
Location: Sparta,
Elevation: 538 ft
Nearby Weather Stations

Elev 538 ft 38.15 °N, 89.70 °W | Updated 6 minutes ago

Overcast
Overcast
34 °F
Feels Like 34 °F
N
0
Wind Variable Wind from North

Today
High -- | Low -- °F
--% Chance of Precip.
Yesterday
High -- | Low -- °F
Precip. -- in
7:07 AM 5:16 PM
Waxing Crescent, 46% visible
Pressure 29.96 in
Visibility 10.0 miles
Clouds Mostly Cloudy 2000 ft
Mostly Cloudy 7000 ft
Overcast 8000 ft
Dew Point 27 °F
Humidity 77%
Rainfall 0.00 in
Snow Depth Not available.
UV 1 out of 12
Pollen .10 out of 12
Air Quality Not available.
Flu Activity Not available.
METAR KSAR 261935Z AUTO 00000KT 10SM BKN020 BKN070 OVC080 01/M03 A2996 RMK AO2 T00091027

More Conditions Fewer Conditions

Pressure 29.96 in
Visibility 10.0 miles
Clouds Mostly Cloudy 2000 ft
Mostly Cloudy 7000 ft
Overcast 8000 ft
Dew Point 27 °F
Humidity 77%
Rainfall 0.00 in
Snow Depth Not available.
UV 1 out of 12
Pollen .10 out of 12
Air Quality Not available.
Flu Activity Not available.
METAR KSAR 261935Z AUTO 00000KT 10SM BKN020 BKN070 OVC080 01/M03 A2996 RMK AO2 T00091027

More Conditions Fewer Conditions

10-Day Weather Forecast

Almanac

Astronomy

Jan. 26, 2015 Rise Set
Actual Time
Civil Twilight
Nautical Twilight
Astronomical Twilight
Moon
Length of Visible Light
Length of Day
Tomorrow will be .
, % of the Moon is Illuminated

Today's Extremes

State Highs State Lows

Community

WunderPhotos

Upload Photos

1,790,338 photos uploaded!

WunderBlogs® & News

Nearby

Air Quality

  Air Quality AQ Index Pollutant
Not available.

Snow Depth

Station Depth Elevation

Earthquake Activity

City Distance Mag. Time & Date
Minimum magnitude displayed is 2.5.

Coastal Water Temperatures

Place Temperature

Nearby Weather Stations